sensor_id;sensor_type;location;lat;lon;timestamp;pressure;altitude;pressure_sealevel;temperature;humidity
50696;BME280;36665;51.786;21.594;2022-11-20T00:03:43;88608.56;;;-7.04;75.14
50696;BME280;36665;51.786;21.594;2022-11-20T00:12:05;88578.29;;;-7.13;75.10
50696;BME280;36665;51.786;21.594;2022-11-20T00:20:27;88556.21;;;-7.19;75.11
50696;BME280;36665;51.786;21.594;2022-11-20T00:28:52;88577.73;;;-7.13;75.05
50696;BME280;36665;51.786;21.594;2022-11-20T00:37:14;88598.19;;;-7.07;74.90
50696;BME280;36665;51.786;21.594;2022-11-20T00:45:36;88607.09;;;-7.04;75.05
50696;BME280;36665;51.786;21.594;2022-11-20T00:53:58;88585.86;;;-7.11;74.96
50696;BME280;36665;51.786;21.594;2022-11-20T01:02:21;88568.10;;;-7.16;75.12
50696;BME280;36665;51.786;21.594;2022-11-20T01:10:43;88537.68;;;-7.25;75.12
50696;BME280;36665;51.786;21.594;2022-11-20T01:19:06;88469.34;;;-7.44;75.11
50696;BME280;36665;51.786;21.594;2022-11-20T01:27:28;88463.06;;;-7.46;75.07
50696;BME280;36665;51.786;21.594;2022-11-20T01:35:50;88493.02;;;-7.37;75.17
50696;BME280;36665;51.786;21.594;2022-11-20T01:44:13;88497.15;;;-7.36;75.12
50696;BME280;36665;51.786;21.594;2022-11-20T01:53:00;88465.04;;;-7.46;74.97
50696;BME280;36665;51.786;21.594;2022-11-20T02:01:21;88438.23;;;-7.54;74.87
50696;BME280;36665;51.786;21.594;2022-11-20T02:09:43;88375.21;;;-7.72;74.90
50696;BME280;36665;51.786;21.594;2022-11-20T02:18:06;88328.44;;;-7.86;74.95
50696;BME280;36665;51.786;21.594;2022-11-20T02:26:30;88346.45;;;-7.79;74.78
50696;BME280;36665;51.786;21.594;2022-11-20T02:34:53;88366.10;;;-7.73;75.05
50696;BME280;36665;51.786;21.594;2022-11-20T02:43:15;88345.19;;;-7.80;74.97
50696;BME280;36665;51.786;21.594;2022-11-20T02:51:37;88349.09;;;-7.78;74.75
50696;BME280;36665;51.786;21.594;2022-11-20T02:59:58;88337.86;;;-7.82;74.88
50696;BME280;36665;51.786;21.594;2022-11-20T03:08:20;88297.33;;;-7.94;74.78
50696;BME280;36665;51.786;21.594;2022-11-20T03:16:41;88238.04;;;-8.11;74.71
50696;BME280;36665;51.786;21.594;2022-11-20T03:25:03;88230.81;;;-8.12;74.91
50696;BME280;36665;51.786;21.594;2022-11-20T03:33:28;88244.88;;;-8.08;74.69
50696;BME280;36665;51.786;21.594;2022-11-20T03:41:50;88286.86;;;-7.95;74.70
50696;BME280;36665;51.786;21.594;2022-11-20T03:50:13;88321.86;;;-7.86;74.66
50696;BME280;36665;51.786;21.594;2022-11-20T03:58:35;88312.77;;;-7.88;74.89
50696;BME280;36665;51.786;21.594;2022-11-20T04:06:58;88297.41;;;-7.92;74.90
50696;BME280;36665;51.786;21.594;2022-11-20T04:15:20;88317.13;;;-7.87;74.81
50696;BME280;36665;51.786;21.594;2022-11-20T04:23:41;88351.92;;;-7.77;74.98
50696;BME280;36665;51.786;21.594;2022-11-20T04:32:03;88354.16;;;-7.77;74.99
50696;BME280;36665;51.786;21.594;2022-11-20T04:40:25;88380.39;;;-7.70;74.95
50696;BME280;36665;51.786;21.594;2022-11-20T04:48:47;88428.50;;;-7.55;75.08
50696;BME280;36665;51.786;21.594;2022-11-20T04:57:09;88462.10;;;-7.45;75.18
50696;BME280;36665;51.786;21.594;2022-11-20T05:05:35;88458.29;;;-7.46;75.03
50696;BME280;36665;51.786;21.594;2022-11-20T05:13:58;88435.77;;;-7.53;75.05
50696;BME280;36665;51.786;21.594;2022-11-20T05:22:21;88359.95;;;-7.74;74.84
50696;BME280;36665;51.786;21.594;2022-11-20T05:30:43;88276.39;;;-7.98;74.77
50696;BME280;36665;51.786;21.594;2022-11-20T05:39:05;88222.78;;;-8.13;74.69
50696;BME280;36665;51.786;21.594;2022-11-20T05:47:27;88233.76;;;-8.11;74.70
50696;BME280;36665;51.786;21.594;2022-11-20T05:56:02;88269.80;;;-8.01;74.77
50696;BME280;36665;51.786;21.594;2022-11-20T06:04:24;88321.70;;;-7.85;74.88
50696;BME280;36665;51.786;21.594;2022-11-20T06:12:46;88373.77;;;-7.71;74.95
50696;BME280;36665;51.786;21.594;2022-11-20T06:21:11;88427.45;;;-7.55;74.88
50696;BME280;36665;51.786;21.594;2022-11-20T06:29:33;88446.10;;;-7.49;74.84
50696;BME280;36665;51.786;21.594;2022-11-20T06:37:55;88401.16;;;-7.62;74.89
50696;BME280;36665;51.786;21.594;2022-11-20T06:46:19;88361.83;;;-7.74;74.84
50696;BME280;36665;51.786;21.594;2022-11-20T06:54:40;88320.59;;;-7.86;74.96
50696;BME280;36665;51.786;21.594;2022-11-20T07:03:03;88339.02;;;-7.81;74.93
50696;BME280;36665;51.786;21.594;2022-11-20T07:11:26;88443.77;;;-7.50;75.04
50696;BME280;36665;51.786;21.594;2022-11-20T07:19:47;88592.13;;;-7.07;75.37
50696;BME280;36665;51.786;21.594;2022-11-20T07:28:09;88745.20;;;-6.63;75.33
50696;BME280;36665;51.786;21.594;2022-11-20T07:36:32;88849.98;;;-6.34;75.59
50696;BME280;36665;51.786;21.594;2022-11-20T07:44:54;89263.05;;;-5.17;75.95
50696;BME280;36665;51.786;21.594;2022-11-20T07:53:15;89780.69;;;-3.70;76.46
50696;BME280;36665;51.786;21.594;2022-11-20T08:01:43;90070.95;;;-2.88;76.67
50696;BME280;36665;51.786;21.594;2022-11-20T08:10:06;90277.96;;;-2.31;77.05
50696;BME280;36665;51.786;21.594;2022-11-20T08:18:27;90435.46;;;-1.88;77.08
50696;BME280;36665;51.786;21.594;2022-11-20T08:26:58;90494.95;;;-1.72;77.10
50696;BME280;36665;51.786;21.594;2022-11-20T08:35:21;90400.14;;;-1.99;77.25
50696;BME280;36665;51.786;21.594;2022-11-20T08:43:43;90283.14;;;-2.32;77.08
50696;BME280;36665;51.786;21.594;2022-11-20T08:52:05;90218.41;;;-2.50;76.87
50696;BME280;36665;51.786;21.594;2022-11-20T09:00:28;90216.61;;;-2.52;77.01
50696;BME280;36665;51.786;21.594;2022-11-20T09:08:54;90264.41;;;-2.38;77.00
50696;BME280;36665;51.786;21.594;2022-11-20T09:17:28;90322.70;;;-2.21;77.20
50696;BME280;36665;51.786;21.594;2022-11-20T09:25:51;90351.77;;;-2.13;77.21
50696;BME280;36665;51.786;21.594;2022-11-20T09:34:15;90376.48;;;-2.07;77.20
50696;BME280;36665;51.786;21.594;2022-11-20T09:42:45;90416.76;;;-1.96;77.09
50696;BME280;36665;51.786;21.594;2022-11-20T09:51:20;90460.33;;;-1.84;77.17
50696;BME280;36665;51.786;21.594;2022-11-20T09:59:46;90465.83;;;-1.82;77.24
50696;BME280;36665;51.786;21.594;2022-11-20T10:08:41;90426.02;;;-1.94;77.11
50696;BME280;36665;51.786;21.594;2022-11-20T10:26:31;90452.39;;;-1.86;77.19
50696;BME280;36665;51.786;21.594;2022-11-20T10:34:33;90519.48;;;-1.67;77.28
50696;BME280;36665;51.786;21.594;2022-11-20T10:43:13;90555.55;;;-1.57;77.41
50696;BME280;36665;51.786;21.594;2022-11-20T10:51:40;90593.08;;;-1.47;77.24
50696;BME280;36665;51.786;21.594;2022-11-20T11:00:10;90636.33;;;-1.35;77.28
50696;BME280;36665;51.786;21.594;2022-11-20T11:08:36;90659.95;;;-1.29;77.53
50696;BME280;36665;51.786;21.594;2022-11-20T11:16:59;90653.04;;;-1.32;77.48
50696;BME280;36665;51.786;21.594;2022-11-20T11:33:47;90738.52;;;-1.08;77.38
50696;BME280;36665;51.786;21.594;2022-11-20T11:42:18;90750.44;;;-1.04;77.54
50696;BME280;36665;51.786;21.594;2022-11-20T11:50:48;90687.80;;;-1.22;77.49
50696;BME280;36665;51.786;21.594;2022-11-20T11:59:29;90666.76;;;-1.28;77.52
50696;BME280;36665;51.786;21.594;2022-11-20T12:16:39;90614.77;;;-1.42;77.06
50696;BME280;36665;51.786;21.594;2022-11-20T12:59:54;90485.88;;;-1.78;77.39
50696;BME280;36665;51.786;21.594;2022-11-20T13:08:23;90461.24;;;-1.85;77.29
50696;BME280;36665;51.786;21.594;2022-11-20T13:25:49;90473.20;;;-1.81;77.17
50696;BME280;36665;51.786;21.594;2022-11-20T13:34:24;90407.12;;;-2.01;77.11
50696;BME280;36665;51.786;21.594;2022-11-20T13:43:15;90389.30;;;-2.07;77.18
50696;BME280;36665;51.786;21.594;2022-11-20T13:51:47;90359.75;;;-2.14;77.08
50696;BME280;36665;51.786;21.594;2022-11-20T14:08:45;90277.14;;;-2.37;77.04
50696;BME280;36665;51.786;21.594;2022-11-20T14:17:20;90254.32;;;-2.43;76.95
50696;BME280;36665;51.786;21.594;2022-11-20T14:25:45;90246.85;;;-2.46;76.77
50696;BME280;36665;51.786;21.594;2022-11-20T14:34:22;90247.31;;;-2.47;76.99
50696;BME280;36665;51.786;21.594;2022-11-20T14:42:45;90226.73;;;-2.52;76.79
50696;BME280;36665;51.786;21.594;2022-11-20T14:51:10;90224.68;;;-2.52;77.01
50696;BME280;36665;51.786;21.594;2022-11-20T14:59:34;90225.87;;;-2.51;76.85
50696;BME280;36665;51.786;21.594;2022-11-20T15:08:08;90215.01;;;-2.55;77.14
50696;BME280;36665;51.786;21.594;2022-11-20T15:16:32;90188.48;;;-2.62;76.99
50696;BME280;36665;51.786;21.594;2022-11-20T15:24:54;90203.95;;;-2.58;76.96
50696;BME280;36665;51.786;21.594;2022-11-20T15:33:17;90199.22;;;-2.59;76.73
50696;BME280;36665;51.786;21.594;2022-11-20T15:41:39;90161.27;;;-2.70;77.08
50696;BME280;36665;51.786;21.594;2022-11-20T15:50:01;90140.91;;;-2.74;77.01
50696;BME280;36665;51.786;21.594;2022-11-20T15:58:23;90138.39;;;-2.75;76.92
50696;BME280;36665;51.786;21.594;2022-11-20T16:06:46;90114.19;;;-2.83;76.72
50696;BME280;36665;51.786;21.594;2022-11-20T16:15:10;90050.17;;;-2.99;76.78
50696;BME280;36665;51.786;21.594;2022-11-20T16:23:51;89946.27;;;-3.29;76.75
50696;BME280;36665;51.786;21.594;2022-11-20T16:32:12;89886.27;;;-3.45;76.67
50696;BME280;36665;51.786;21.594;2022-11-20T16:40:34;89857.02;;;-3.53;76.67
50696;BME280;36665;51.786;21.594;2022-11-20T16:48:59;89779.11;;;-3.75;76.67
50696;BME280;36665;51.786;21.594;2022-11-20T16:57:21;89715.13;;;-3.94;76.64
50696;BME280;36665;51.786;21.594;2022-11-20T17:05:43;89679.08;;;-4.04;76.44
50696;BME280;36665;51.786;21.594;2022-11-20T17:14:05;89658.63;;;-4.09;76.46
50696;BME280;36665;51.786;21.594;2022-11-20T17:22:28;89617.34;;;-4.20;76.47
50696;BME280;36665;51.786;21.594;2022-11-20T17:30:49;89610.52;;;-4.22;76.43
50696;BME280;36665;51.786;21.594;2022-11-20T17:39:12;89599.09;;;-4.27;76.41
50696;BME280;36665;51.786;21.594;2022-11-20T17:47:35;89573.68;;;-4.34;76.54
50696;BME280;36665;51.786;21.594;2022-11-20T17:55:58;89537.39;;;-4.44;76.40
50696;BME280;36665;51.786;21.594;2022-11-20T18:04:38;89528.13;;;-4.47;76.36
50696;BME280;36665;51.786;21.594;2022-11-20T18:13:00;89498.98;;;-4.55;76.21
50696;BME280;36665;51.786;21.594;2022-11-20T18:21:23;89439.11;;;-4.72;76.28
50696;BME280;36665;51.786;21.594;2022-11-20T18:29:46;89397.41;;;-4.84;76.08
50696;BME280;36665;51.786;21.594;2022-11-20T18:38:12;89368.00;;;-4.92;76.24
50696;BME280;36665;51.786;21.594;2022-11-20T18:46:33;89363.23;;;-4.94;76.20
50696;BME280;36665;51.786;21.594;2022-11-20T18:54:55;89336.70;;;-5.01;75.97
50696;BME280;36665;51.786;21.594;2022-11-20T19:03:17;89295.04;;;-5.12;76.12
50696;BME280;36665;51.786;21.594;2022-11-20T19:11:40;89258.23;;;-5.21;76.16
50696;BME280;36665;51.786;21.594;2022-11-20T19:20:05;89272.90;;;-5.17;76.15
50696;BME280;36665;51.786;21.594;2022-11-20T19:28:32;89350.11;;;-4.98;76.32
50696;BME280;36665;51.786;21.594;2022-11-20T19:36:56;89463.16;;;-4.65;76.38
50696;BME280;36665;51.786;21.594;2022-11-20T19:45:19;89564.22;;;-4.36;76.46
50696;BME280;36665;51.786;21.594;2022-11-20T19:53:42;89667.05;;;-4.06;76.54
50696;BME280;36665;51.786;21.594;2022-11-20T20:02:05;89777.88;;;-3.75;76.66
50696;BME280;36665;51.786;21.594;2022-11-20T20:10:28;89867.90;;;-3.50;76.71
50696;BME280;36665;51.786;21.594;2022-11-20T20:18:57;89910.34;;;-3.39;76.83
50696;BME280;36665;51.786;21.594;2022-11-20T20:27:19;89937.64;;;-3.31;76.91
50696;BME280;36665;51.786;21.594;2022-11-20T20:35:42;89981.34;;;-3.19;76.92
50696;BME280;36665;51.786;21.594;2022-11-20T20:44:04;90015.70;;;-3.10;77.03
50696;BME280;36665;51.786;21.594;2022-11-20T20:52:44;89998.19;;;-3.14;77.14
50696;BME280;36665;51.786;21.594;2022-11-20T21:01:08;89959.11;;;-3.24;76.96
50696;BME280;36665;51.786;21.594;2022-11-20T21:09:30;89955.98;;;-3.26;76.89
50696;BME280;36665;51.786;21.594;2022-11-20T21:17:52;89954.17;;;-3.27;77.07
50696;BME280;36665;51.786;21.594;2022-11-20T21:26:14;89918.81;;;-3.37;77.01
50696;BME280;36665;51.786;21.594;2022-11-20T21:34:36;89892.73;;;-3.45;77.01
50696;BME280;36665;51.786;21.594;2022-11-20T21:42:57;89889.02;;;-3.45;76.95
50696;BME280;36665;51.786;21.594;2022-11-20T21:51:21;89878.33;;;-3.49;77.14
50696;BME280;36665;51.786;21.594;2022-11-20T21:59:43;89865.54;;;-3.52;77.15
50696;BME280;36665;51.786;21.594;2022-11-20T22:08:05;89871.27;;;-3.51;77.08
50696;BME280;36665;51.786;21.594;2022-11-20T22:16:27;89902.64;;;-3.42;77.18
50696;BME280;36665;51.786;21.594;2022-11-20T22:24:49;89925.23;;;-3.36;77.19
50696;BME280;36665;51.786;21.594;2022-11-20T22:33:10;89932.15;;;-3.34;77.17
50696;BME280;36665;51.786;21.594;2022-11-20T22:41:35;89934.01;;;-3.34;77.38
50696;BME280;36665;51.786;21.594;2022-11-20T22:49:56;89970.60;;;-3.22;77.44
50696;BME280;36665;51.786;21.594;2022-11-20T22:58:18;90027.98;;;-3.06;77.37
50696;BME280;36665;51.786;21.594;2022-11-20T23:06:39;90054.73;;;-2.99;77.51
50696;BME280;36665;51.786;21.594;2022-11-20T23:15:01;90058.73;;;-2.98;77.56
50696;BME280;36665;51.786;21.594;2022-11-20T23:23:23;90089.02;;;-2.90;77.50
50696;BME280;36665;51.786;21.594;2022-11-20T23:31:44;90136.04;;;-2.76;77.58
50696;BME280;36665;51.786;21.594;2022-11-20T23:40:08;90157.46;;;-2.70;77.60
50696;BME280;36665;51.786;21.594;2022-11-20T23:48:35;90166.67;;;-2.69;77.67
50696;BME280;36665;51.786;21.594;2022-11-20T23:56:57;90196.40;;;-2.62;77.61
